createdAt,value
2022-08-28T00:00:12.882Z,100964.44
2022-08-28T00:02:45.723Z,100992.44
2022-08-28T00:05:19.063Z,100999.63
2022-08-28T00:07:50.621Z,100996.19
2022-08-28T00:10:23.981Z,100996.13
2022-08-28T00:12:58.039Z,100995.38
2022-08-28T00:15:34.568Z,100998.00
2022-08-28T00:18:06.854Z,100995.38
2022-08-28T00:20:38.915Z,100993.69
2022-08-28T00:23:10.258Z,100993.72
2022-08-28T00:25:41.911Z,100970.31
2022-08-28T00:28:23.827Z,100970.31
2022-08-28T00:30:59.064Z,100998.34
2022-08-28T00:33:34.922Z,100998.47
2022-08-28T00:36:06.550Z,100996.72
2022-08-28T00:38:38.035Z,100996.91
2022-08-28T00:41:11.019Z,101008.41
2022-08-28T00:43:45.739Z,101004.91
2022-08-28T00:46:21.221Z,100993.47
2022-08-28T00:48:52.656Z,101003.28
2022-08-28T00:51:43.499Z,100995.44
2022-08-28T00:54:14.913Z,100994.72
2022-08-28T00:56:47.603Z,100985.97
2022-08-28T00:59:22.540Z,100990.44
2022-08-28T01:01:56.911Z,101001.97
2022-08-28T01:04:32.177Z,100994.94
2022-08-28T01:07:09.261Z,100999.44
2022-08-28T01:09:47.388Z,100995.97
2022-08-28T01:12:23.695Z,100996.97
2022-08-28T01:14:59.992Z,100985.59
2022-08-28T01:17:34.218Z,100988.28
2022-08-28T01:20:11.446Z,100998.97
2022-08-28T01:23:09.726Z,100994.66
2022-08-28T01:25:42.856Z,100989.63
2022-08-28T01:28:14.874Z,101006.44
2022-08-28T01:30:49.149Z,101001.22
2022-08-28T01:33:27.820Z,100994.34
2022-08-28T01:35:59.693Z,101010.34
2022-08-28T01:38:31.010Z,101013.94
2022-08-28T01:41:02.317Z,101013.13
2022-08-28T01:43:34.021Z,101007.00
2022-08-28T01:46:06.703Z,101012.41
2022-08-28T01:48:41.556Z,101003.75
2022-08-28T01:51:13.227Z,101017.88
2022-08-28T01:53:45.405Z,101018.84
2022-08-28T01:56:19.001Z,101004.75
2022-08-28T01:58:50.352Z,101007.38
2022-08-28T02:01:22.677Z,101007.56
2022-08-28T02:03:54.055Z,101020.00
2022-08-28T02:06:25.795Z,101014.78
2022-08-28T02:08:57.863Z,101018.31
2022-08-28T02:11:30.598Z,101016.72
2022-08-28T02:14:02.892Z,101016.72
2022-08-28T02:16:34.478Z,101015.09
2022-08-28T02:19:06.083Z,101022.19
2022-08-28T02:21:37.863Z,101024.00
2022-08-28T02:24:09.257Z,101016.06
2022-08-28T02:26:40.574Z,101018.88
2022-08-28T02:29:12.360Z,101029.53
2022-08-28T02:31:43.656Z,101017.31
2022-08-28T02:34:14.984Z,101019.94
2022-08-28T02:36:46.279Z,101027.06
2022-08-28T02:39:17.818Z,101010.38
2022-08-28T02:41:49.125Z,101020.09
2022-08-28T02:44:20.584Z,101028.16
2022-08-28T02:46:52.633Z,101025.56
2022-08-28T02:49:25.430Z,101024.75
2022-08-28T02:52:02.811Z,101024.78
2022-08-28T02:54:34.971Z,101019.53
2022-08-28T02:57:09.838Z,101017.84
2022-08-28T02:59:43.314Z,101017.88
2022-08-28T03:02:14.638Z,101019.72
2022-08-28T03:04:45.983Z,101013.56
2022-08-28T03:07:17.370Z,101014.59
2022-08-28T03:09:50.334Z,101012.88
2022-08-28T03:12:24.111Z,101019.09
2022-08-28T03:14:55.561Z,101018.28
2022-08-28T03:17:27.086Z,101025.34
2022-08-28T03:19:58.962Z,101017.53
2022-08-28T03:22:49.154Z,101028.97
2022-08-28T03:25:22.197Z,101026.34
2022-08-28T03:27:54.167Z,101029.06
2022-08-28T03:30:25.677Z,101021.22
2022-08-28T03:32:57.142Z,101036.25
2022-08-28T03:35:28.617Z,101024.88
2022-08-28T03:38:00.164Z,101022.13
2022-08-28T03:40:32.283Z,101020.38
2022-08-28T03:43:03.731Z,101022.19
2022-08-28T03:45:38.925Z,101023.09
2022-08-28T03:48:10.254Z,101027.56
2022-08-28T03:50:41.593Z,101026.75
2022-08-28T03:53:13.305Z,101017.91
2022-08-28T03:55:44.636Z,101027.72
2022-08-28T03:58:18.825Z,101018.09
2022-08-28T04:00:51.052Z,101024.28
2022-08-28T04:03:22.522Z,101023.47
2022-08-28T04:05:54.016Z,101023.47
2022-08-28T04:08:25.367Z,101022.63
2022-08-28T04:10:59.301Z,101018.25
2022-08-28T04:13:30.732Z,101003.41
2022-08-28T04:16:11.976Z,101022.69
2022-08-28T04:18:44.054Z,101018.31
2022-08-28T04:21:18.907Z,101020.03
2022-08-28T04:23:50.882Z,101027.97
2022-08-28T04:26:25.446Z,101030.59
2022-08-28T04:28:56.798Z,101024.50
2022-08-28T04:31:31.716Z,101022.66
2022-08-28T04:34:06.634Z,101034.16
2022-08-28T04:36:38.144Z,101038.53
2022-08-28T04:39:10.954Z,101036.66
2022-08-28T04:41:42.301Z,101041.88
2022-08-28T04:44:13.718Z,101043.47
2022-08-28T04:46:45.024Z,101035.34
2022-08-28T04:49:19.689Z,101047.56
2022-08-28T04:51:51.307Z,101050.84
2022-08-28T04:54:22.658Z,101054.22
2022-08-28T04:56:54.089Z,101049.59
2022-08-28T04:59:25.424Z,101046.75
2022-08-28T05:01:56.843Z,101052.78
2022-08-28T05:04:28.397Z,101056.16
2022-08-28T05:06:59.898Z,101054.22
2022-08-28T05:09:32.039Z,101054.13
2022-08-28T05:12:04.937Z,101053.13
2022-08-28T05:14:36.569Z,101060.13
2022-08-28T05:17:09.336Z,101061.72
2022-08-28T05:19:41.684Z,101062.44
2022-08-28T05:22:13.000Z,101064.97
2022-08-28T05:24:44.316Z,101062.19
2022-08-28T05:27:15.617Z,101066.47
2022-08-28T05:29:49.791Z,101056.69
2022-08-28T05:32:21.474Z,101066.22
2022-08-28T05:34:54.837Z,101060.84
2022-08-28T05:37:27.617Z,101057.16
2022-08-28T05:40:00.096Z,101069.88
2022-08-28T05:42:33.889Z,101059.50
2022-08-28T05:45:08.026Z,101053.25
2022-08-28T05:47:39.449Z,101060.41
2022-08-28T05:50:14.445Z,101061.22
2022-08-28T05:52:45.769Z,101065.03
2022-08-28T05:55:17.109Z,101056.84
2022-08-28T05:57:48.522Z,101060.94
2022-08-28T06:00:20.122Z,101072.81
2022-08-28T06:02:51.420Z,101074.16
2022-08-28T06:05:23.929Z,101076.06
2022-08-28T06:07:55.229Z,101078.44
2022-08-28T06:10:26.878Z,101078.22
2022-08-28T06:12:58.748Z,101075.06
2022-08-28T06:15:30.109Z,101081.13
2022-08-28T06:18:01.434Z,101079.31
2022-08-28T06:20:38.235Z,101074.00
2022-08-28T06:23:11.334Z,101086.09
2022-08-28T06:25:46.826Z,101077.78
2022-08-28T06:28:24.704Z,101071.38
2022-08-28T06:31:17.799Z,101082.47
2022-08-28T06:33:47.718Z,101077.88
2022-08-28T06:36:19.030Z,101082.88
2022-08-28T06:38:50.875Z,101085.66
2022-08-28T06:41:22.318Z,101093.44
2022-08-28T06:43:54.807Z,101092.94
2022-08-28T06:46:26.944Z,101096.69
2022-08-28T06:48:58.431Z,101097.50
2022-08-28T06:51:29.931Z,101098.53
2022-08-28T06:54:01.882Z,101098.44
2022-08-28T06:56:33.707Z,101097.34
2022-08-28T06:59:05.549Z,101104.13
2022-08-28T07:01:37.304Z,101097.13
2022-08-28T07:04:11.489Z,101105.00
2022-08-28T07:06:46.777Z,101106.88
2022-08-28T07:09:18.968Z,101097.88
2022-08-28T07:11:50.991Z,101100.91
2022-08-28T07:14:23.173Z,101101.09
2022-08-28T07:16:57.518Z,101105.66
2022-08-28T07:19:28.817Z,101107.22
2022-08-28T07:22:00.258Z,101110.53
2022-08-28T07:24:31.672Z,101111.50
2022-08-28T07:27:03.822Z,101111.19
2022-08-28T07:29:35.532Z,101110.00
2022-08-28T07:32:07.070Z,101116.59
2022-08-28T07:34:40.539Z,101118.84
2022-08-28T07:37:15.267Z,101122.00
2022-08-28T07:39:46.725Z,101126.78
2022-08-28T07:42:38.042Z,101131.25
2022-08-28T07:45:09.901Z,101136.31
2022-08-28T07:47:42.020Z,101133.94
2022-08-28T07:50:15.108Z,101124.97
2022-08-28T07:52:46.483Z,101128.88
2022-08-28T07:55:17.876Z,101131.06
2022-08-28T07:57:49.899Z,101140.22
2022-08-28T08:00:22.877Z,101141.72
2022-08-28T08:02:54.236Z,101144.97
2022-08-28T08:05:25.617Z,101147.56
2022-08-28T08:07:56.917Z,101143.38
2022-08-28T08:10:33.834Z,101148.28
2022-08-28T08:13:05.745Z,101144.63
2022-08-28T08:15:39.019Z,101147.16
2022-08-28T08:18:10.358Z,101144.75
2022-08-28T08:20:41.873Z,101147.19
2022-08-28T08:23:13.338Z,101152.56
2022-08-28T08:25:59.173Z,101138.25
2022-08-28T08:28:31.130Z,101147.31
2022-08-28T08:31:08.305Z,101146.97
2022-08-28T08:33:45.555Z,101141.75
2022-08-28T08:36:20.462Z,101144.03
2022-08-28T08:38:59.426Z,101138.63
2022-08-28T08:41:48.046Z,101143.09
2022-08-28T08:44:40.295Z,101135.06
2022-08-28T08:47:30.555Z,101148.84
2022-08-28T08:50:22.123Z,101137.38
2022-08-28T08:53:12.250Z,101139.31
2022-08-28T08:55:52.634Z,101137.56
2022-08-28T08:58:36.120Z,101134.38
2022-08-28T09:01:26.965Z,101134.97
2022-08-28T09:04:28.654Z,101138.84
2022-08-28T09:07:16.404Z,101136.69
2022-08-28T09:09:52.385Z,101130.03
2022-08-28T09:12:29.403Z,101138.06
2022-08-28T09:15:14.342Z,101141.53
2022-08-28T09:17:56.962Z,101132.00
2022-08-28T09:20:33.203Z,101145.13
2022-08-28T09:23:13.000Z,101145.50
2022-08-28T09:25:51.678Z,101142.16
2022-08-28T09:28:36.046Z,101145.03
2022-08-28T09:31:13.307Z,101149.84
2022-08-28T09:33:51.250Z,101155.50
2022-08-28T09:36:28.383Z,101161.88
2022-08-28T09:39:17.910Z,101153.50
2022-08-28T09:42:33.332Z,101162.59
2022-08-28T09:45:21.185Z,101155.94
2022-08-28T09:47:55.841Z,101162.78
2022-08-28T09:50:37.798Z,101163.19
2022-08-28T09:53:09.065Z,101174.22
2022-08-28T09:56:02.097Z,101163.94
2022-08-28T09:58:41.199Z,101154.88
2022-08-28T10:01:50.736Z,101151.09
2022-08-28T10:04:40.778Z,101145.59
2022-08-28T10:07:22.452Z,101161.94
2022-08-28T10:10:17.639Z,101156.59
2022-08-28T10:13:02.184Z,101155.63
2022-08-28T10:16:06.134Z,101155.25
2022-08-28T10:19:03.944Z,101149.44
2022-08-28T10:21:49.342Z,101159.91
2022-08-28T10:24:39.035Z,101155.63
2022-08-28T10:27:32.373Z,101167.44
2022-08-28T10:30:13.182Z,101165.50
2022-08-28T10:32:57.257Z,101154.97
2022-08-28T10:35:58.750Z,101158.94
2022-08-28T10:38:47.232Z,101150.91
2022-08-28T10:41:47.801Z,101157.22
2022-08-28T10:44:31.791Z,101164.00
2022-08-28T10:47:05.494Z,101169.94
2022-08-28T10:49:41.465Z,101166.66
2022-08-28T10:52:35.689Z,101163.38
2022-08-28T10:55:34.592Z,101163.19
2022-08-28T10:58:25.097Z,101160.25
2022-08-28T11:01:02.082Z,101168.22
2022-08-28T11:03:45.015Z,101169.56
2022-08-28T11:06:38.483Z,101181.28
2022-08-28T11:09:25.802Z,101174.41
2022-08-28T11:12:04.140Z,101170.88
2022-08-28T11:14:48.376Z,101171.97
2022-08-28T11:17:25.631Z,101186.91
2022-08-28T11:20:19.051Z,101173.41
2022-08-28T11:23:10.418Z,101156.84
2022-08-28T11:25:45.271Z,101177.59
2022-08-28T11:28:23.965Z,101176.72
2022-08-28T11:30:58.317Z,101183.19
2022-08-28T11:33:45.215Z,101180.88
2022-08-28T11:36:19.420Z,101187.28
2022-08-28T11:38:50.676Z,101194.81
2022-08-28T11:41:32.014Z,101186.56
2022-08-28T11:44:09.551Z,101180.13
2022-08-28T11:47:23.862Z,101179.25
2022-08-28T11:49:55.210Z,101190.09
2022-08-28T11:52:48.128Z,101172.19
2022-08-28T11:55:32.490Z,101177.34
2022-08-28T11:58:15.768Z,101186.91
2022-08-28T12:01:12.803Z,101181.13
2022-08-28T12:04:01.973Z,101184.31
2022-08-28T12:06:45.044Z,101183.22
2022-08-28T12:09:42.513Z,101181.19
2022-08-28T12:12:46.227Z,101176.34
2022-08-28T12:15:29.731Z,101185.13
2022-08-28T12:18:05.089Z,101178.34
2022-08-28T12:20:57.674Z,101173.88
2022-08-28T12:23:45.199Z,101176.13
2022-08-28T12:26:25.367Z,101190.72
2022-08-28T12:29:07.165Z,101182.22
2022-08-28T12:32:10.163Z,101169.59
2022-08-28T12:35:02.121Z,101172.25
2022-08-28T12:38:00.905Z,101180.97
2022-08-28T12:40:50.367Z,101173.22
2022-08-28T12:43:46.418Z,101166.75
2022-08-28T12:46:26.978Z,101167.81
2022-08-28T12:49:01.270Z,101164.66
2022-08-28T12:51:36.813Z,101167.81
2022-08-28T12:54:08.759Z,101175.16
2022-08-28T12:56:40.250Z,101172.56
2022-08-28T12:59:27.118Z,101165.47
2022-08-28T13:02:07.057Z,101164.91
2022-08-28T13:04:42.240Z,101176.75
2022-08-28T13:07:16.962Z,101172.09
2022-08-28T13:09:52.576Z,101160.66
2022-08-28T13:12:34.899Z,101177.66
2022-08-28T13:15:51.737Z,101169.00
2022-08-28T13:18:40.317Z,101165.78
2022-08-28T13:21:33.120Z,101160.84
2022-08-28T13:24:24.003Z,101156.09
2022-08-28T13:27:14.175Z,101163.59
2022-08-28T13:29:57.398Z,101167.88
2022-08-28T13:32:35.976Z,101156.56
2022-08-28T13:35:22.618Z,101170.66
2022-08-28T13:38:00.506Z,101160.34
2022-08-28T13:40:57.497Z,101169.53
2022-08-28T13:43:43.506Z,101159.81
2022-08-28T13:46:14.896Z,101168.28
2022-08-28T13:48:46.310Z,101175.34
2022-08-28T13:51:21.179Z,101178.28
2022-08-28T13:53:52.859Z,101173.34
2022-08-28T13:56:25.018Z,101173.63
2022-08-28T13:58:57.276Z,101173.06
2022-08-28T14:01:49.412Z,101180.13
2022-08-28T14:04:20.841Z,101168.22
2022-08-28T14:06:52.267Z,101171.22
2022-08-28T14:09:23.951Z,101168.59
2022-08-28T14:11:55.720Z,101174.13
2022-08-28T14:14:27.052Z,101167.06
2022-08-28T14:16:58.958Z,101152.25
2022-08-28T14:19:30.437Z,101168.63
2022-08-28T14:22:01.821Z,101171.22
2022-08-28T14:24:33.165Z,101168.00
2022-08-28T14:27:04.629Z,101180.50
2022-08-28T14:29:38.059Z,101167.94
2022-08-28T14:32:09.451Z,101172.66
2022-08-28T14:34:41.228Z,101168.78
2022-08-28T14:37:13.067Z,101174.97
2022-08-28T14:39:44.493Z,101160.47
2022-08-28T14:42:15.936Z,101162.66
2022-08-28T14:44:47.262Z,101162.84
2022-08-28T14:47:18.930Z,101175.31
2022-08-28T14:49:50.667Z,101167.25
2022-08-28T14:52:22.799Z,101172.31
2022-08-28T14:54:54.099Z,101173.44
2022-08-28T14:57:25.471Z,101175.03
2022-08-28T14:59:56.794Z,101175.06
2022-08-28T15:02:28.246Z,101171.03
2022-08-28T15:04:59.729Z,101173.03
2022-08-28T15:07:31.071Z,101178.34
2022-08-28T15:10:02.492Z,101176.78
2022-08-28T15:12:33.838Z,101172.59
2022-08-28T15:15:05.607Z,101167.19
2022-08-28T15:17:36.954Z,101177.66
2022-08-28T15:20:08.944Z,101180.38
2022-08-28T15:22:40.287Z,101187.44
2022-08-28T15:25:11.970Z,101164.84
2022-08-28T15:27:43.395Z,101177.47
2022-08-28T15:30:15.796Z,101186.78
2022-08-28T15:32:48.698Z,101182.78
2022-08-28T15:35:20.107Z,101182.81
2022-08-28T15:37:51.477Z,101172.16
2022-08-28T15:40:41.585Z,101177.91
2022-08-28T15:43:13.236Z,101181.88
2022-08-28T15:45:44.825Z,101179.25
2022-08-28T15:48:16.250Z,101168.63
2022-08-28T15:50:47.545Z,101176.66
2022-08-28T15:53:19.351Z,101179.53
2022-08-28T15:55:50.716Z,101178.03
2022-08-28T15:58:22.129Z,101182.91
2022-08-28T16:00:53.605Z,101184.91
2022-08-28T16:03:26.454Z,101182.72
2022-08-28T16:05:59.187Z,101182.03
2022-08-28T16:08:31.148Z,101189.00
2022-08-28T16:11:02.459Z,101192.41
2022-08-28T16:13:34.040Z,101192.50
2022-08-28T16:16:05.538Z,101186.13
2022-08-28T16:18:37.126Z,101185.75
2022-08-28T16:21:09.406Z,101186.53
2022-08-28T16:23:40.838Z,101189.25
2022-08-28T16:26:15.744Z,101184.09
2022-08-28T16:28:47.102Z,101199.38
2022-08-28T16:31:20.568Z,101194.31
2022-08-28T16:33:53.470Z,101196.00
2022-08-28T16:36:25.203Z,101202.50
2022-08-28T16:39:03.670Z,101199.94
2022-08-28T16:41:35.237Z,101192.41
2022-08-28T16:44:06.643Z,101189.06
2022-08-28T16:46:37.985Z,101195.81
2022-08-28T16:49:10.882Z,101187.44
2022-08-28T16:51:42.200Z,101197.84
2022-08-28T16:54:13.625Z,101184.22
2022-08-28T16:56:46.173Z,101187.88
2022-08-28T16:59:20.376Z,101177.25
2022-08-28T17:01:55.863Z,101187.88
2022-08-28T17:04:27.197Z,101194.22
2022-08-28T17:06:59.394Z,101186.22
2022-08-28T17:09:31.538Z,101193.44
2022-08-28T17:12:03.153Z,101190.72
2022-08-28T17:14:35.670Z,101198.81
2022-08-28T17:17:07.477Z,101200.88
2022-08-28T17:19:39.610Z,101186.13
2022-08-28T17:22:29.665Z,101192.41
2022-08-28T17:25:13.431Z,101197.22
2022-08-28T17:27:44.851Z,101200.41
2022-08-28T17:30:18.144Z,101202.50
2022-08-28T17:32:49.689Z,101199.22
2022-08-28T17:35:22.001Z,101197.47
2022-08-28T17:37:55.595Z,101203.03
2022-08-28T17:40:27.216Z,101201.59
2022-08-28T17:42:58.710Z,101198.38
2022-08-28T17:45:30.209Z,101205.81
2022-08-28T17:48:01.639Z,101214.94
2022-08-28T17:50:33.062Z,101213.25
2022-08-28T17:53:04.850Z,101215.31
2022-08-28T17:55:36.373Z,101207.59
2022-08-28T17:58:08.262Z,101198.06
2022-08-28T18:00:41.020Z,101204.31
2022-08-28T18:03:12.562Z,101205.88
2022-08-28T18:05:44.033Z,101208.19
2022-08-28T18:08:15.543Z,101211.28
2022-08-28T18:10:47.186Z,101206.31
2022-08-28T18:13:18.888Z,101198.81
2022-08-28T18:15:51.403Z,101209.72
2022-08-28T18:18:34.441Z,101210.25
2022-08-28T18:21:12.358Z,101207.19
2022-08-28T18:23:43.675Z,101213.91
2022-08-28T18:26:17.403Z,101213.50
2022-08-28T18:28:49.510Z,101202.31
2022-08-28T18:31:20.924Z,101205.53
2022-08-28T18:33:54.154Z,101214.69
2022-08-28T18:36:25.753Z,101201.75
2022-08-28T18:38:57.873Z,101200.13
2022-08-28T18:41:44.112Z,101213.75
2022-08-28T18:44:17.106Z,101217.44
2022-08-28T18:46:49.750Z,101215.44
2022-08-28T18:49:21.159Z,101218.94
2022-08-28T18:51:53.648Z,101216.81
2022-08-28T18:54:25.281Z,101229.06
2022-08-28T18:57:04.306Z,101235.19
2022-08-28T18:59:35.812Z,101235.91
2022-08-28T19:02:07.401Z,101239.28
2022-08-28T19:04:39.001Z,101248.16
2022-08-28T19:07:14.094Z,101242.75
2022-08-28T19:09:45.406Z,101244.44
2022-08-28T19:12:16.920Z,101253.31
2022-08-28T19:14:48.364Z,101247.88
2022-08-28T19:17:21.181Z,101243.56
2022-08-28T19:19:54.261Z,101254.19
2022-08-28T19:22:25.590Z,101262.19
2022-08-28T19:25:27.970Z,101255.88
2022-08-28T19:28:01.667Z,101251.44
2022-08-28T19:30:33.876Z,101251.50
2022-08-28T19:33:05.775Z,101258.88
2022-08-28T19:35:37.083Z,101269.81
2022-08-28T19:38:10.894Z,101263.94
2022-08-28T19:40:42.395Z,101265.75
2022-08-28T19:43:16.864Z,101263.06
2022-08-28T19:45:48.723Z,101264.94
2022-08-28T19:48:20.139Z,101264.19
2022-08-28T19:51:00.814Z,101251.88
2022-08-28T19:53:32.230Z,101272.56
2022-08-28T19:56:06.122Z,101265.56
2022-08-28T19:58:37.640Z,101267.44
2022-08-28T20:01:09.178Z,101260.44
2022-08-28T20:03:40.665Z,101265.00
2022-08-28T20:06:12.311Z,101257.81
2022-08-28T20:08:44.281Z,101266.75
2022-08-28T20:11:24.471Z,101267.69
2022-08-28T20:13:57.829Z,101259.94
2022-08-28T20:16:36.736Z,101251.41
2022-08-28T20:19:10.467Z,101250.66
2022-08-28T20:21:44.200Z,101253.72
2022-08-28T20:24:20.383Z,101248.69
2022-08-28T20:26:52.951Z,101249.00
2022-08-28T20:29:24.823Z,101252.56
2022-08-28T20:31:56.746Z,101256.13
2022-08-28T20:34:28.444Z,101259.56
2022-08-28T20:36:59.793Z,101258.50
2022-08-28T20:39:31.151Z,101261.00
2022-08-28T20:42:03.183Z,101255.66
2022-08-28T20:44:35.167Z,101261.66
2022-08-28T20:47:06.729Z,101267.72
2022-08-28T20:49:39.906Z,101257.78
2022-08-28T20:52:11.385Z,101262.47
2022-08-28T20:54:43.769Z,101267.25
2022-08-28T20:57:18.210Z,101260.38
2022-08-28T20:59:49.681Z,101267.84
2022-08-28T21:02:23.876Z,101270.53
2022-08-28T21:04:55.821Z,101269.59
2022-08-28T21:07:27.748Z,101271.19
2022-08-28T21:10:06.890Z,101271.00
2022-08-28T21:12:40.082Z,101273.44
2022-08-28T21:15:12.710Z,101258.28
2022-08-28T21:17:44.026Z,101276.84
2022-08-28T21:20:16.058Z,101275.84
2022-08-28T21:22:48.543Z,101273.78
2022-08-28T21:25:21.459Z,101275.53
2022-08-28T21:27:53.187Z,101276.41
2022-08-28T21:30:29.564Z,101277.16
2022-08-28T21:33:01.333Z,101274.53
2022-08-28T21:35:32.951Z,101266.59
2022-08-28T21:38:04.311Z,101271.91
2022-08-28T21:40:35.763Z,101272.16
2022-08-28T21:43:07.210Z,101254.41
2022-08-28T21:45:38.646Z,101270.16
2022-08-28T21:48:10.039Z,101266.53
2022-08-28T21:50:44.698Z,101270.78
2022-08-28T21:53:16.506Z,101276.16
2022-08-28T21:55:53.600Z,101266.66
2022-08-28T21:58:25.041Z,101286.09
2022-08-28T22:00:59.394Z,101285.97
2022-08-28T22:03:31.400Z,101291.28
2022-08-28T22:06:02.744Z,101297.34
2022-08-28T22:08:34.293Z,101294.66
2022-08-28T22:11:05.739Z,101289.28
2022-08-28T22:13:37.901Z,101278.66
2022-08-28T22:16:09.825Z,101285.84
2022-08-28T22:18:41.491Z,101288.47
2022-08-28T22:21:34.190Z,101278.72
2022-08-28T22:24:06.186Z,101281.34
2022-08-28T22:26:37.872Z,101277.03
2022-08-28T22:29:10.650Z,101283.91
2022-08-28T22:31:46.124Z,101289.22
2022-08-28T22:34:17.636Z,101291.84
2022-08-28T22:36:48.954Z,101283.81
2022-08-28T22:39:20.258Z,101287.41
2022-08-28T22:41:51.557Z,101269.56
2022-08-28T22:44:22.899Z,101277.72
2022-08-28T22:46:54.278Z,101263.50
2022-08-28T22:49:25.680Z,101277.66
2022-08-28T22:51:57.041Z,101275.03
2022-08-28T22:54:28.400Z,101270.59
2022-08-28T22:56:59.725Z,101278.59
2022-08-28T22:59:31.576Z,101270.69
2022-08-28T23:02:04.069Z,101273.28
2022-08-28T23:04:35.388Z,101274.28
2022-08-28T23:07:06.776Z,101278.78
2022-08-28T23:09:38.359Z,101277.16
2022-08-28T23:12:10.258Z,101279.84
2022-08-28T23:14:45.293Z,101276.28
2022-08-28T23:17:19.842Z,101273.66
2022-08-28T23:19:51.537Z,101276.47
2022-08-28T23:22:22.852Z,101279.91
2022-08-28T23:24:54.145Z,101266.59
2022-08-28T23:27:36.320Z,101282.59
2022-08-28T23:30:08.351Z,101274.34
2022-08-28T23:32:40.261Z,101270.69
2022-08-28T23:35:13.907Z,101277.72
2022-08-28T23:37:48.877Z,101270.72
2022-08-28T23:40:24.362Z,101261.69
2022-08-28T23:42:56.523Z,101271.44
2022-08-28T23:45:28.721Z,101265.94
2022-08-28T23:48:01.041Z,101263.13
2022-08-28T23:50:32.617Z,101257.69
2022-08-28T23:53:04.585Z,101238.13
2022-08-28T23:55:36.782Z,101247.75
2022-08-28T23:58:08.729Z,101254.81
